createdAt,value
2022-08-25T00:01:27.058Z,74.28
2022-08-25T00:03:57.640Z,74.22
2022-08-25T00:06:24.875Z,74.57
2022-08-25T00:08:51.787Z,74.82
2022-08-25T00:11:22.214Z,75.38
2022-08-25T00:13:54.283Z,75.61
2022-08-25T00:16:22.416Z,75.42
2022-08-25T00:18:52.501Z,75.27
2022-08-25T00:21:19.319Z,75.92
2022-08-25T00:23:46.555Z,75.97
2022-08-25T00:26:14.048Z,75.92
2022-08-25T00:28:40.533Z,76.28
2022-08-25T00:31:12.106Z,76.44
2022-08-25T00:33:39.129Z,76.02
2022-08-25T00:36:06.325Z,76.22
2022-08-25T00:38:32.963Z,76.52
2022-08-25T00:41:08.167Z,77.19
2022-08-25T00:43:36.586Z,77.53
2022-08-25T00:46:03.068Z,77.78
2022-08-25T00:48:29.511Z,77.96
2022-08-25T00:50:56.443Z,78.19
2022-08-25T00:53:23.377Z,78.67
2022-08-25T00:55:50.667Z,78.83
2022-08-25T00:58:28.893Z,80.36
2022-08-25T01:00:57.692Z,80.10
2022-08-25T01:03:32.908Z,79.88
2022-08-25T01:06:03.040Z,80.79
2022-08-25T01:08:32.210Z,80.79
2022-08-25T01:11:01.966Z,81.12
2022-08-25T01:13:34.275Z,82.24
2022-08-25T01:16:01.558Z,81.68
2022-08-25T01:18:28.633Z,82.30
2022-08-25T01:20:57.428Z,82.59
2022-08-25T01:23:24.367Z,82.27
2022-08-25T01:26:05.499Z,83.64
2022-08-25T01:28:32.728Z,81.90
2022-08-25T01:30:59.358Z,82.26
2022-08-25T01:33:26.154Z,82.47
2022-08-25T01:35:52.611Z,82.72
2022-08-25T01:38:20.861Z,83.43
2022-08-25T01:40:49.689Z,83.66
2022-08-25T01:43:17.326Z,84.17
2022-08-25T01:45:47.160Z,84.73
2022-08-25T01:48:15.211Z,84.94
2022-08-25T01:50:42.169Z,84.86
2022-08-25T01:53:32.218Z,84.96
2022-08-25T01:56:03.845Z,85.01
2022-08-25T01:58:35.771Z,85.62
2022-08-25T02:01:06.165Z,85.61
2022-08-25T02:03:32.973Z,85.89
2022-08-25T02:06:01.243Z,86.09
2022-08-25T02:08:30.931Z,86.54
2022-08-25T02:10:57.586Z,86.73
2022-08-25T02:13:26.960Z,87.45
2022-08-25T02:16:00.768Z,87.24
2022-08-25T02:18:27.322Z,88.02
2022-08-25T02:20:54.202Z,87.97
2022-08-25T02:23:20.821Z,88.63
2022-08-25T02:25:47.438Z,89.46
2022-08-25T02:28:13.912Z,89.02
2022-08-25T02:30:42.544Z,89.29
2022-08-25T02:33:09.327Z,89.85
2022-08-25T02:35:36.718Z,90.55
2022-08-25T02:38:04.949Z,90.77
2022-08-25T02:40:31.666Z,90.88
2022-08-25T02:42:58.181Z,91.14
2022-08-25T02:45:24.896Z,91.57
2022-08-25T02:47:51.504Z,91.76
2022-08-25T02:50:18.054Z,92.37
2022-08-25T02:52:44.835Z,92.84
2022-08-25T02:55:14.136Z,93.49
2022-08-25T02:57:42.077Z,93.75
2022-08-25T03:00:11.693Z,93.90
2022-08-25T03:02:41.338Z,94.11
2022-08-25T03:05:09.354Z,94.71
2022-08-25T03:07:38.040Z,95.02
2022-08-25T03:10:07.664Z,95.47
2022-08-25T03:12:34.077Z,95.81
2022-08-25T03:15:00.747Z,96.74
2022-08-25T03:17:27.419Z,97.16
2022-08-25T03:19:56.864Z,97.51
2022-08-25T03:22:23.347Z,98.05
2022-08-25T03:24:49.745Z,98.29
2022-08-25T03:27:16.170Z,98.93
2022-08-25T03:29:43.022Z,98.90
2022-08-25T03:32:09.778Z,99.21
2022-08-25T03:34:36.338Z,99.44
2022-08-25T03:37:02.847Z,99.67
2022-08-25T03:39:29.287Z,100.00
2022-08-25T03:41:55.769Z,100.00
2022-08-25T03:44:22.900Z,100.00
2022-08-25T03:46:52.150Z,100.00
2022-08-25T03:49:23.236Z,100.00
2022-08-25T03:51:51.625Z,100.00
2022-08-25T03:54:21.891Z,100.00
2022-08-25T03:56:48.388Z,100.00
2022-08-25T03:59:14.972Z,100.00
2022-08-25T04:01:43.538Z,100.00
2022-08-25T04:04:11.832Z,100.00
2022-08-25T04:06:39.565Z,100.00
2022-08-25T04:09:07.201Z,100.00
2022-08-25T04:11:33.968Z,100.00
2022-08-25T04:14:02.329Z,100.00
2022-08-25T04:16:34.014Z,100.00
2022-08-25T04:19:03.087Z,100.00
2022-08-25T04:21:29.674Z,100.00
2022-08-25T04:23:56.643Z,100.00
2022-08-25T04:26:29.872Z,100.00
2022-08-25T04:28:58.149Z,100.00
2022-08-25T04:31:24.668Z,100.00
2022-08-25T04:33:51.244Z,100.00
2022-08-25T04:36:19.250Z,100.00
2022-08-25T04:38:47.652Z,100.00
2022-08-25T04:41:16.248Z,100.00
2022-08-25T04:43:44.321Z,100.00
2022-08-25T04:46:14.289Z,100.00
2022-08-25T04:48:47.912Z,100.00
2022-08-25T04:51:17.993Z,100.00
2022-08-25T04:53:44.769Z,100.00
2022-08-25T04:56:13.887Z,100.00
2022-08-25T04:58:41.167Z,100.00
2022-08-25T05:01:15.778Z,100.00
2022-08-25T05:03:43.331Z,100.00
2022-08-25T05:06:13.990Z,100.00
2022-08-25T05:08:42.348Z,100.00
2022-08-25T05:11:14.945Z,100.00
2022-08-25T05:13:42.897Z,100.00
2022-08-25T05:16:09.839Z,100.00
2022-08-25T05:18:38.442Z,100.00
2022-08-25T05:21:07.908Z,100.00
2022-08-25T05:23:34.591Z,100.00
2022-08-25T05:26:20.281Z,100.00
2022-08-25T05:28:49.120Z,100.00
2022-08-25T05:31:15.700Z,100.00
2022-08-25T05:33:42.849Z,100.00
2022-08-25T05:36:11.287Z,100.00
2022-08-25T05:38:39.704Z,100.00
2022-08-25T05:41:13.104Z,100.00
2022-08-25T05:43:41.616Z,100.00
2022-08-25T05:46:09.140Z,100.00
2022-08-25T05:48:36.664Z,100.00
2022-08-25T05:51:05.472Z,100.00
2022-08-25T05:53:33.989Z,100.00
2022-08-25T05:56:01.041Z,100.00
2022-08-25T05:58:29.045Z,100.00
2022-08-25T06:00:58.043Z,100.00
2022-08-25T06:03:24.596Z,100.00
2022-08-25T06:05:51.066Z,100.00
2022-08-25T06:08:17.482Z,100.00
2022-08-25T06:10:43.937Z,100.00
2022-08-25T06:13:10.352Z,100.00
2022-08-25T06:15:36.896Z,100.00
2022-08-25T06:18:03.698Z,100.00
2022-08-25T06:20:31.449Z,100.00
2022-08-25T06:22:59.188Z,100.00
2022-08-25T06:25:27.285Z,100.00
2022-08-25T06:27:54.962Z,100.00
2022-08-25T06:30:24.609Z,100.00
2022-08-25T06:32:55.354Z,100.00
2022-08-25T06:35:22.671Z,100.00
2022-08-25T06:37:49.138Z,100.00
2022-08-25T06:40:16.394Z,100.00
2022-08-25T06:42:43.029Z,100.00
2022-08-25T06:45:09.935Z,100.00
2022-08-25T06:47:36.371Z,100.00
2022-08-25T06:50:03.985Z,99.85
2022-08-25T06:52:31.209Z,98.71
2022-08-25T06:54:57.745Z,97.51
2022-08-25T06:57:24.537Z,96.29
2022-08-25T06:59:53.401Z,94.94
2022-08-25T07:02:21.995Z,93.17
2022-08-25T07:04:49.171Z,91.90
2022-08-25T07:07:15.605Z,89.89
2022-08-25T07:09:42.047Z,88.58
2022-08-25T07:12:08.667Z,87.80
2022-08-25T07:14:36.358Z,86.15
2022-08-25T07:17:03.356Z,85.23
2022-08-25T07:19:38.584Z,84.66
2022-08-25T07:22:07.666Z,84.21
2022-08-25T07:24:35.864Z,83.83
2022-08-25T07:27:02.335Z,83.44
2022-08-25T07:29:32.248Z,82.73
2022-08-25T07:32:03.809Z,81.96
2022-08-25T07:34:51.805Z,81.46
2022-08-25T07:37:38.333Z,80.55
2022-08-25T07:40:08.167Z,80.20
2022-08-25T07:42:35.930Z,79.72
2022-08-25T07:45:05.441Z,79.50
2022-08-25T07:47:34.096Z,79.29
2022-08-25T07:50:00.522Z,78.71
2022-08-25T07:52:26.967Z,78.55
2022-08-25T07:54:55.033Z,77.97
2022-08-25T07:57:22.292Z,77.51
2022-08-25T07:59:48.769Z,77.43
2022-08-25T08:02:19.064Z,76.80
2022-08-25T08:04:49.376Z,76.50
2022-08-25T08:07:21.075Z,76.08
2022-08-25T08:09:56.064Z,76.81
2022-08-25T08:12:27.478Z,76.95
2022-08-25T08:14:54.297Z,77.30
2022-08-25T08:17:21.583Z,76.88
2022-08-25T08:19:48.174Z,76.83
2022-08-25T08:22:17.371Z,76.94
2022-08-25T08:24:54.056Z,76.46
2022-08-25T08:27:21.684Z,76.24
2022-08-25T08:29:48.463Z,75.70
2022-08-25T08:32:14.924Z,75.98
2022-08-25T08:34:41.829Z,75.01
2022-08-25T08:37:10.819Z,74.84
2022-08-25T08:39:38.577Z,74.18
2022-08-25T08:42:39.707Z,72.13
2022-08-25T08:45:26.455Z,72.17
2022-08-25T08:48:08.239Z,70.71
2022-08-25T08:50:54.157Z,70.47
2022-08-25T08:53:34.197Z,70.53
2022-08-25T08:56:11.748Z,68.12
2022-08-25T08:58:51.824Z,66.50
2022-08-25T09:01:43.338Z,66.96
2022-08-25T09:04:26.325Z,65.14
2022-08-25T09:06:55.259Z,65.43
2022-08-25T09:09:35.914Z,63.28
2022-08-25T09:12:41.670Z,62.85
2022-08-25T09:15:54.818Z,63.06
2022-08-25T09:18:29.114Z,62.15
2022-08-25T09:21:04.904Z,61.50
2022-08-25T09:23:56.745Z,60.80
2022-08-25T09:26:28.335Z,59.55
2022-08-25T09:29:06.055Z,57.87
2022-08-25T09:31:36.353Z,58.60
2022-08-25T09:34:05.882Z,57.82
2022-08-25T09:36:37.553Z,58.37
2022-08-25T09:39:05.899Z,57.76
2022-08-25T09:41:51.577Z,54.28
2022-08-25T09:44:27.587Z,55.02
2022-08-25T09:46:57.205Z,55.30
2022-08-25T09:49:34.024Z,53.67
2022-08-25T09:52:25.500Z,52.76
2022-08-25T09:54:53.575Z,53.65
2022-08-25T09:57:30.913Z,51.49
2022-08-25T09:59:57.846Z,51.71
2022-08-25T10:02:28.449Z,50.84
2022-08-25T10:04:56.035Z,49.63
2022-08-25T10:07:35.322Z,48.32
2022-08-25T10:10:07.733Z,48.03
2022-08-25T10:12:42.637Z,46.65
2022-08-25T10:15:31.822Z,45.95
2022-08-25T10:18:19.488Z,45.16
2022-08-25T10:21:13.837Z,45.59
2022-08-25T10:23:47.349Z,45.67
2022-08-25T10:26:58.318Z,44.67
2022-08-25T10:30:02.967Z,44.16
2022-08-25T10:32:48.516Z,44.25
2022-08-25T10:35:29.107Z,44.03
2022-08-25T10:38:04.877Z,43.74
2022-08-25T10:40:57.783Z,42.82
2022-08-25T10:43:35.777Z,42.47
2022-08-25T10:46:08.333Z,42.16
2022-08-25T10:48:55.060Z,41.12
2022-08-25T10:51:54.997Z,39.67
2022-08-25T10:54:40.319Z,40.09
2022-08-25T10:57:23.792Z,38.82
2022-08-25T11:00:06.840Z,38.72
2022-08-25T11:02:54.725Z,38.08
2022-08-25T11:05:25.576Z,38.04
2022-08-25T11:08:00.943Z,38.15
2022-08-25T11:10:42.329Z,37.96
2022-08-25T11:13:17.052Z,37.68
2022-08-25T11:16:15.922Z,37.68
2022-08-25T11:18:55.702Z,37.65
2022-08-25T11:21:36.061Z,37.22
2022-08-25T11:24:27.704Z,36.53
2022-08-25T11:26:56.982Z,36.43
2022-08-25T11:29:31.229Z,35.33
2022-08-25T11:31:59.920Z,35.48
2022-08-25T11:34:31.859Z,35.44
2022-08-25T11:37:07.767Z,35.09
2022-08-25T11:39:57.722Z,33.75
2022-08-25T11:42:45.537Z,31.40
2022-08-25T11:45:21.621Z,32.49
2022-08-25T11:47:58.062Z,32.35
2022-08-25T11:50:56.352Z,31.01
2022-08-25T11:53:28.373Z,31.59
2022-08-25T11:56:04.210Z,30.72
2022-08-25T11:58:32.684Z,30.58
2022-08-25T12:01:02.177Z,30.08
2022-08-25T12:03:31.631Z,29.02
2022-08-25T12:06:33.484Z,28.67
2022-08-25T12:08:59.807Z,29.84
2022-08-25T12:11:42.215Z,28.92
2022-08-25T12:14:28.648Z,27.72
2022-08-25T12:16:55.203Z,28.72
2022-08-25T12:19:36.939Z,26.62
2022-08-25T12:22:04.464Z,27.64
2022-08-25T12:24:48.020Z,27.71
2022-08-25T12:27:40.090Z,27.44
2022-08-25T12:30:50.531Z,26.60
2022-08-25T12:33:20.149Z,27.30
2022-08-25T12:36:02.548Z,26.65
2022-08-25T12:38:46.312Z,26.36
2022-08-25T12:41:24.524Z,26.99
2022-08-25T12:43:54.355Z,27.33
2022-08-25T12:46:23.875Z,26.78
2022-08-25T12:48:57.927Z,25.96
2022-08-25T12:51:38.252Z,24.72
2022-08-25T12:54:29.513Z,24.62
2022-08-25T12:57:00.481Z,25.62
2022-08-25T12:59:31.349Z,24.99
2022-08-25T13:02:07.426Z,24.27
2022-08-25T13:05:04.811Z,24.40
2022-08-25T13:07:57.384Z,24.37
2022-08-25T13:10:57.942Z,24.94
2022-08-25T13:13:50.609Z,25.38
2022-08-25T13:16:28.387Z,25.10
2022-08-25T13:18:59.274Z,25.09
2022-08-25T13:21:37.106Z,25.13
2022-08-25T13:24:07.307Z,24.32
2022-08-25T13:26:48.050Z,23.02
2022-08-25T13:29:20.282Z,23.60
2022-08-25T13:31:58.873Z,23.58
2022-08-25T13:34:36.216Z,23.11
2022-08-25T13:37:27.041Z,23.86
2022-08-25T13:40:27.451Z,23.22
2022-08-25T13:43:01.242Z,23.81
2022-08-25T13:45:31.898Z,23.83
2022-08-25T13:47:58.931Z,24.45
2022-08-25T13:50:26.441Z,24.64
2022-08-25T13:52:56.007Z,24.68
2022-08-25T13:55:27.732Z,24.77
2022-08-25T13:57:58.113Z,24.49
2022-08-25T14:01:22.829Z,24.93
2022-08-25T14:04:01.429Z,24.82
2022-08-25T14:06:28.349Z,25.34
2022-08-25T14:09:00.613Z,24.74
2022-08-25T14:11:43.852Z,25.06
2022-08-25T14:14:32.464Z,24.50
2022-08-25T14:17:16.286Z,24.83
2022-08-25T14:19:48.943Z,25.44
2022-08-25T14:22:15.873Z,25.05
2022-08-25T14:24:42.482Z,25.02
2022-08-25T14:27:08.875Z,24.99
2022-08-25T14:29:41.278Z,25.05
2022-08-25T14:32:10.001Z,25.39
2022-08-25T14:34:39.586Z,24.84
2022-08-25T14:37:17.731Z,24.76
2022-08-25T14:39:44.682Z,24.28
2022-08-25T14:42:12.041Z,24.06
2022-08-25T14:44:38.644Z,23.67
2022-08-25T14:47:07.574Z,23.81
2022-08-25T14:49:40.544Z,23.28
2022-08-25T14:52:12.995Z,23.22
2022-08-25T14:54:39.438Z,23.17
2022-08-25T14:57:08.401Z,23.38
2022-08-25T14:59:35.344Z,23.08
2022-08-25T15:02:01.902Z,22.89
2022-08-25T15:04:30.040Z,22.59
2022-08-25T15:07:00.006Z,22.84
2022-08-25T15:09:33.328Z,22.60
2022-08-25T15:12:00.319Z,22.45
2022-08-25T15:14:28.436Z,22.65
2022-08-25T15:16:57.308Z,22.90
2022-08-25T15:19:26.947Z,22.96
2022-08-25T15:21:54.614Z,22.57
2022-08-25T15:24:25.629Z,22.58
2022-08-25T15:26:55.603Z,22.77
2022-08-25T15:29:23.374Z,22.43
2022-08-25T15:31:50.238Z,22.75
2022-08-25T15:34:17.741Z,22.81
2022-08-25T15:36:45.126Z,22.92
2022-08-25T15:39:11.564Z,22.66
2022-08-25T15:41:38.649Z,22.90
2022-08-25T15:44:06.622Z,22.87
2022-08-25T15:46:36.485Z,22.50
2022-08-25T15:49:04.939Z,23.15
2022-08-25T15:51:34.485Z,22.66
2022-08-25T15:54:01.116Z,22.57
2022-08-25T15:56:27.596Z,22.64
2022-08-25T15:58:54.318Z,22.30
2022-08-25T16:01:26.179Z,22.37
2022-08-25T16:03:53.971Z,22.17
2022-08-25T16:06:20.599Z,22.18
2022-08-25T16:08:48.361Z,22.41
2022-08-25T16:11:20.629Z,22.03
2022-08-25T16:13:48.508Z,22.19
2022-08-25T16:16:16.286Z,21.79
2022-08-25T16:18:44.105Z,21.94
2022-08-25T16:21:13.303Z,21.89
2022-08-25T16:23:41.228Z,21.64
2022-08-25T16:26:10.612Z,21.58
2022-08-25T16:28:40.272Z,21.76
2022-08-25T16:31:12.283Z,21.60
2022-08-25T16:33:39.707Z,21.40
2022-08-25T16:36:09.346Z,21.61
2022-08-25T16:38:36.946Z,21.69
2022-08-25T16:41:08.938Z,21.90
2022-08-25T16:43:36.321Z,21.82
2022-08-25T16:46:06.486Z,22.13
2022-08-25T16:48:33.858Z,23.04
2022-08-25T16:51:00.449Z,23.45
2022-08-25T16:53:45.671Z,23.31
2022-08-25T16:56:15.165Z,23.99
2022-08-25T16:58:41.592Z,23.74
2022-08-25T17:01:12.656Z,24.17
2022-08-25T17:03:43.981Z,24.69
2022-08-25T17:06:10.669Z,25.32
2022-08-25T17:08:37.118Z,25.90
2022-08-25T17:11:11.468Z,26.35
2022-08-25T17:13:44.593Z,26.67
2022-08-25T17:16:12.777Z,27.06
2022-08-25T17:18:41.389Z,27.51
2022-08-25T17:21:19.544Z,27.34
2022-08-25T17:23:51.339Z,27.99
2022-08-25T17:26:17.915Z,28.01
2022-08-25T17:28:44.657Z,28.22
2022-08-25T17:31:12.873Z,28.83
2022-08-25T17:33:39.892Z,28.92
2022-08-25T17:36:07.253Z,29.04
2022-08-25T17:38:34.577Z,29.45
2022-08-25T17:41:03.644Z,29.56
2022-08-25T17:43:31.723Z,29.63
2022-08-25T17:45:58.193Z,30.06
2022-08-25T17:48:26.286Z,30.38
2022-08-25T17:50:53.656Z,30.29
2022-08-25T17:53:20.933Z,30.36
2022-08-25T17:55:58.654Z,30.86
2022-08-25T17:58:25.084Z,30.84
2022-08-25T18:00:54.233Z,30.95
2022-08-25T18:03:20.842Z,31.14
2022-08-25T18:05:47.352Z,31.33
2022-08-25T18:08:16.031Z,31.72
2022-08-25T18:10:44.293Z,31.85
2022-08-25T18:13:10.746Z,32.42
2022-08-25T18:15:42.406Z,32.44
2022-08-25T18:18:09.753Z,33.06
2022-08-25T18:20:39.241Z,33.29
2022-08-25T18:23:09.754Z,33.32
2022-08-25T18:25:36.643Z,33.68
2022-08-25T18:28:08.607Z,33.59
2022-08-25T18:30:35.958Z,33.97
2022-08-25T18:33:02.538Z,34.25
2022-08-25T18:35:29.835Z,34.56
2022-08-25T18:38:16.904Z,34.86
2022-08-25T18:40:43.956Z,35.33
2022-08-25T18:43:12.971Z,35.81
2022-08-25T18:45:47.725Z,36.21
2022-08-25T18:48:15.471Z,36.42
2022-08-25T18:50:43.339Z,36.81
2022-08-25T18:53:11.195Z,37.12
2022-08-25T18:55:38.841Z,37.35
2022-08-25T18:58:07.474Z,38.01
2022-08-25T19:00:34.877Z,38.16
2022-08-25T19:03:01.645Z,38.76
2022-08-25T19:05:35.489Z,39.07
2022-08-25T19:08:04.347Z,39.52
2022-08-25T19:10:32.522Z,39.68
2022-08-25T19:13:07.871Z,39.86
2022-08-25T19:15:37.355Z,40.54
2022-08-25T19:18:08.023Z,40.84
2022-08-25T19:20:36.528Z,41.42
2022-08-25T19:23:03.231Z,41.63
2022-08-25T19:25:35.055Z,42.02
2022-08-25T19:28:07.120Z,42.63
2022-08-25T19:30:35.032Z,42.53
2022-08-25T19:33:02.660Z,43.61
2022-08-25T19:35:44.050Z,43.97
2022-08-25T19:38:18.844Z,44.33
2022-08-25T19:41:00.493Z,44.95
2022-08-25T19:43:27.355Z,45.21
2022-08-25T19:45:53.825Z,45.87
2022-08-25T19:48:20.554Z,45.91
2022-08-25T19:50:47.943Z,46.57
2022-08-25T19:53:22.319Z,47.46
2022-08-25T19:55:48.756Z,48.02
2022-08-25T19:58:15.911Z,48.47
2022-08-25T20:00:47.173Z,48.66
2022-08-25T20:03:17.355Z,48.98
2022-08-25T20:05:43.818Z,49.34
2022-08-25T20:08:10.257Z,49.98
2022-08-25T20:10:41.851Z,50.25
2022-08-25T20:13:08.999Z,50.63
2022-08-25T20:15:37.259Z,50.95
2022-08-25T20:18:04.664Z,51.27
2022-08-25T20:20:32.383Z,52.07
2022-08-25T20:23:19.453Z,52.21
2022-08-25T20:25:46.454Z,52.70
2022-08-25T20:28:18.908Z,53.24
2022-08-25T20:30:46.037Z,53.21
2022-08-25T20:33:12.668Z,53.77
2022-08-25T20:35:39.645Z,53.87
2022-08-25T20:38:07.911Z,54.36
2022-08-25T20:40:34.669Z,54.74
2022-08-25T20:43:04.337Z,55.35
2022-08-25T20:45:30.852Z,55.53
2022-08-25T20:47:57.388Z,55.66
2022-08-25T20:50:23.987Z,56.78
2022-08-25T20:52:51.448Z,57.37
2022-08-25T20:55:18.953Z,57.89
2022-08-25T20:57:45.736Z,58.23
2022-08-25T21:00:12.766Z,58.93
2022-08-25T21:02:39.257Z,59.48
2022-08-25T21:05:06.648Z,60.02
2022-08-25T21:07:35.708Z,60.39
2022-08-25T21:10:05.496Z,60.60
2022-08-25T21:12:32.128Z,61.26
2022-08-25T21:14:58.653Z,62.35
2022-08-25T21:17:25.098Z,62.53
2022-08-25T21:19:51.902Z,63.15
2022-08-25T21:22:18.450Z,63.28
2022-08-25T21:24:45.397Z,64.19
2022-08-25T21:27:11.836Z,64.58
2022-08-25T21:29:38.628Z,64.90
2022-08-25T21:32:17.210Z,66.11
2022-08-25T21:34:43.643Z,66.64
2022-08-25T21:37:10.113Z,67.07
2022-08-25T21:39:37.444Z,67.29
2022-08-25T21:42:04.381Z,67.71
2022-08-25T21:44:30.815Z,67.86
2022-08-25T21:46:57.449Z,68.60
2022-08-25T21:49:25.258Z,68.74
2022-08-25T21:52:00.355Z,69.38
2022-08-25T21:54:28.746Z,70.18
2022-08-25T21:56:59.588Z,70.65
2022-08-25T21:59:32.649Z,70.89
2022-08-25T22:02:01.988Z,71.08
2022-08-25T22:04:29.161Z,71.72
2022-08-25T22:06:57.447Z,71.91
2022-08-25T22:09:25.066Z,72.16
2022-08-25T22:11:52.300Z,72.34
2022-08-25T22:14:21.912Z,73.28
2022-08-25T22:16:48.434Z,73.75
2022-08-25T22:19:15.026Z,74.18
2022-08-25T22:21:43.315Z,74.58
2022-08-25T22:24:10.433Z,75.27
2022-08-25T22:26:37.087Z,76.06
2022-08-25T22:29:04.367Z,76.88
2022-08-25T22:31:33.453Z,77.44
2022-08-25T22:34:00.768Z,78.02
2022-08-25T22:36:32.221Z,78.47
2022-08-25T22:38:59.248Z,79.66
2022-08-25T22:41:28.472Z,79.91
2022-08-25T22:43:56.692Z,80.70
2022-08-25T22:46:26.074Z,80.79
2022-08-25T22:48:55.680Z,81.50
2022-08-25T22:51:27.593Z,81.73
2022-08-25T22:53:55.123Z,81.95
2022-08-25T22:56:32.695Z,83.90
2022-08-25T22:59:04.216Z,83.66
2022-08-25T23:01:31.916Z,84.09
2022-08-25T23:04:01.267Z,84.48
2022-08-25T23:06:28.937Z,84.31
2022-08-25T23:08:56.212Z,84.76
2022-08-25T23:11:24.259Z,85.15
2022-08-25T23:13:53.868Z,85.60
2022-08-25T23:16:22.276Z,86.21
2022-08-25T23:18:48.883Z,86.28
2022-08-25T23:21:35.167Z,86.87
2022-08-25T23:24:07.978Z,87.55
2022-08-25T23:26:34.719Z,87.97
2022-08-25T23:29:03.251Z,88.31
2022-08-25T23:31:44.736Z,88.68
2022-08-25T23:34:11.436Z,89.19
2022-08-25T23:36:38.119Z,89.87
2022-08-25T23:39:05.458Z,90.20
2022-08-25T23:41:34.239Z,90.61
2022-08-25T23:44:05.342Z,91.13
2022-08-25T23:46:34.859Z,91.45
2022-08-25T23:49:02.482Z,91.55
2022-08-25T23:51:34.542Z,92.32
2022-08-25T23:54:06.988Z,92.42
2022-08-25T23:56:36.334Z,92.82
2022-08-25T23:59:04.274Z,93.34
